sensor_id;sensor_type;location;lat;lon;timestamp;temperature;humidity
69938;DHT22;57248;47.320;15.998;2023-04-24T00:01:42;10.04;96.38
69938;DHT22;57248;47.320;15.998;2023-04-24T00:04:14;10.13;96.13
69938;DHT22;57248;47.320;15.998;2023-04-24T00:06:48;10.09;97.16
69938;DHT22;57248;47.320;15.998;2023-04-24T00:09:26;10.16;97.50
69938;DHT22;57248;47.320;15.998;2023-04-24T00:12:04;10.21;96.87
69938;DHT22;57248;47.320;15.998;2023-04-24T00:14:38;10.25;96.16
69938;DHT22;57248;47.320;15.998;2023-04-24T00:17:17;10.31;95.73
69938;DHT22;57248;47.320;15.998;2023-04-24T00:19:52;10.36;95.28
69938;DHT22;57248;47.320;15.998;2023-04-24T00:22:30;10.36;94.86
69938;DHT22;57248;47.320;15.998;2023-04-24T00:25:03;10.15;96.03
69938;DHT22;57248;47.320;15.998;2023-04-24T00:27:34;10.13;95.44
69938;DHT22;57248;47.320;15.998;2023-04-24T00:30:09;10.16;95.78
69938;DHT22;57248;47.320;15.998;2023-04-24T00:32:41;9.88;96.29
69938;DHT22;57248;47.320;15.998;2023-04-24T00:35:13;9.87;96.57
69938;DHT22;57248;47.320;15.998;2023-04-24T00:37:47;9.92;95.33
69938;DHT22;57248;47.320;15.998;2023-04-24T00:40:18;9.97;95.02
69938;DHT22;57248;47.320;15.998;2023-04-24T00:42:50;9.91;95.31
69938;DHT22;57248;47.320;15.998;2023-04-24T00:45:22;9.90;94.89
69938;DHT22;57248;47.320;15.998;2023-04-24T00:47:55;9.84;95.43
69938;DHT22;57248;47.320;15.998;2023-04-24T00:50:28;9.80;95.09
69938;DHT22;57248;47.320;15.998;2023-04-24T00:53:00;9.69;94.65
69938;DHT22;57248;47.320;15.998;2023-04-24T00:55:26;9.61;94.96
69938;DHT22;57248;47.320;15.998;2023-04-24T00:57:58;9.61;96.22
69938;DHT22;57248;47.320;15.998;2023-04-24T01:00:30;9.65;95.35
69938;DHT22;57248;47.320;15.998;2023-04-24T01:02:57;9.61;96.60
69938;DHT22;57248;47.320;15.998;2023-04-24T01:05:33;9.53;95.74
69938;DHT22;57248;47.320;15.998;2023-04-24T01:08:06;9.53;95.61
69938;DHT22;57248;47.320;15.998;2023-04-24T01:10:38;9.51;95.38
69938;DHT22;57248;47.320;15.998;2023-04-24T01:13:19;9.54;95.13
69938;DHT22;57248;47.320;15.998;2023-04-24T01:15:53;9.51;95.60
69938;DHT22;57248;47.320;15.998;2023-04-24T01:18:26;9.36;95.97
69938;DHT22;57248;47.320;15.998;2023-04-24T01:21:03;9.36;96.47
69938;DHT22;57248;47.320;15.998;2023-04-24T01:23:35;9.42;95.83
69938;DHT22;57248;47.320;15.998;2023-04-24T01:26:08;9.34;96.31
69938;DHT22;57248;47.320;15.998;2023-04-24T01:28:39;9.33;96.35
69938;DHT22;57248;47.320;15.998;2023-04-24T01:31:12;9.32;96.51
69938;DHT22;57248;47.320;15.998;2023-04-24T01:33:43;9.33;96.35
69938;DHT22;57248;47.320;15.998;2023-04-24T01:36:16;9.26;96.28
69938;DHT22;57248;47.320;15.998;2023-04-24T01:38:48;9.13;96.83
69938;DHT22;57248;47.320;15.998;2023-04-24T01:41:20;9.27;95.74
69938;DHT22;57248;47.320;15.998;2023-04-24T01:43:54;9.30;95.70
69938;DHT22;57248;47.320;15.998;2023-04-24T01:46:27;8.98;97.31
69938;DHT22;57248;47.320;15.998;2023-04-24T01:49:00;8.84;98.95
69938;DHT22;57248;47.320;15.998;2023-04-24T01:51:31;9.05;98.01
69938;DHT22;57248;47.320;15.998;2023-04-24T01:54:04;9.23;96.77
69938;DHT22;57248;47.320;15.998;2023-04-24T01:56:40;9.20;97.13
69938;DHT22;57248;47.320;15.998;2023-04-24T01:59:12;9.27;96.73
69938;DHT22;57248;47.320;15.998;2023-04-24T02:01:44;9.37;96.57
69938;DHT22;57248;47.320;15.998;2023-04-24T02:04:18;9.39;96.45
69938;DHT22;57248;47.320;15.998;2023-04-24T02:06:49;9.34;96.41
69938;DHT22;57248;47.320;15.998;2023-04-24T02:09:23;9.42;96.41
69938;DHT22;57248;47.320;15.998;2023-04-24T02:11:49;9.33;96.51
69938;DHT22;57248;47.320;15.998;2023-04-24T02:14:23;9.20;96.74
69938;DHT22;57248;47.320;15.998;2023-04-24T02:17:03;9.09;97.13
69938;DHT22;57248;47.320;15.998;2023-04-24T02:19:35;8.88;98.40
69938;DHT22;57248;47.320;15.998;2023-04-24T02:22:09;8.79;98.49
69938;DHT22;57248;47.320;15.998;2023-04-24T02:24:41;8.69;98.32
69938;DHT22;57248;47.320;15.998;2023-04-24T02:27:14;8.76;98.02
69938;DHT22;57248;47.320;15.998;2023-04-24T02:29:46;8.72;97.98
69938;DHT22;57248;47.320;15.998;2023-04-24T02:32:18;8.72;97.95
69938;DHT22;57248;47.320;15.998;2023-04-24T02:34:50;8.60;98.77
69938;DHT22;57248;47.320;15.998;2023-04-24T02:37:22;8.68;98.39
69938;DHT22;57248;47.320;15.998;2023-04-24T02:39:54;8.61;97.42
69938;DHT22;57248;47.320;15.998;2023-04-24T02:42:26;8.60;97.52
69938;DHT22;57248;47.320;15.998;2023-04-24T02:44:59;8.34;97.53
69938;DHT22;57248;47.320;15.998;2023-04-24T02:47:30;8.34;97.34
69938;DHT22;57248;47.320;15.998;2023-04-24T02:49:56;8.36;97.32
69938;DHT22;57248;47.320;15.998;2023-04-24T02:52:27;8.19;98.08
69938;DHT22;57248;47.320;15.998;2023-04-24T02:54:59;8.03;98.93
69938;DHT22;57248;47.320;15.998;2023-04-24T02:57:31;8.19;98.00
69938;DHT22;57248;47.320;15.998;2023-04-24T03:00:04;8.19;98.26
69938;DHT22;57248;47.320;15.998;2023-04-24T03:02:38;8.34;97.65
69938;DHT22;57248;47.320;15.998;2023-04-24T03:05:11;8.37;97.50
69938;DHT22;57248;47.320;15.998;2023-04-24T03:07:43;8.37;97.91
69938;DHT22;57248;47.320;15.998;2023-04-24T03:10:16;8.31;98.37
69938;DHT22;57248;47.320;15.998;2023-04-24T03:12:55;8.19;98.75
69938;DHT22;57248;47.320;15.998;2023-04-24T03:15:27;8.17;98.82
69938;DHT22;57248;47.320;15.998;2023-04-24T03:17:59;8.30;98.41
69938;DHT22;57248;47.320;15.998;2023-04-24T03:20:26;8.31;98.60
69938;DHT22;57248;47.320;15.998;2023-04-24T03:22:59;8.27;98.11
69938;DHT22;57248;47.320;15.998;2023-04-24T03:25:31;8.26;98.16
69938;DHT22;57248;47.320;15.998;2023-04-24T03:28:03;8.30;98.16
69938;DHT22;57248;47.320;15.998;2023-04-24T03:30:41;8.13;98.34
69938;DHT22;57248;47.320;15.998;2023-04-24T03:33:15;7.94;99.33
69938;DHT22;57248;47.320;15.998;2023-04-24T03:35:56;8.03;99.00
69938;DHT22;57248;47.320;15.998;2023-04-24T03:38:36;8.19;98.06
69938;DHT22;57248;47.320;15.998;2023-04-24T03:41:30;8.13;97.88
69938;DHT22;57248;47.320;15.998;2023-04-24T03:44:10;7.99;97.85
69938;DHT22;57248;47.320;15.998;2023-04-24T03:46:42;7.89;98.03
69938;DHT22;57248;47.320;15.998;2023-04-24T03:49:14;7.78;98.89
69938;DHT22;57248;47.320;15.998;2023-04-24T03:51:46;7.94;98.41
69938;DHT22;57248;47.320;15.998;2023-04-24T03:54:24;7.87;98.90
69938;DHT22;57248;47.320;15.998;2023-04-24T03:56:58;7.82;99.02
69938;DHT22;57248;47.320;15.998;2023-04-24T03:59:31;7.92;98.17
69938;DHT22;57248;47.320;15.998;2023-04-24T04:02:17;7.72;99.12
69938;DHT22;57248;47.320;15.998;2023-04-24T04:04:49;7.66;99.54
69938;DHT22;57248;47.320;15.998;2023-04-24T04:07:21;7.73;99.35
69938;DHT22;57248;47.320;15.998;2023-04-24T04:09:55;7.78;99.57
69938;DHT22;57248;47.320;15.998;2023-04-24T04:12:27;7.81;99.89
69938;DHT22;57248;47.320;15.998;2023-04-24T04:15:12;8.00;99.60
69938;DHT22;57248;47.320;15.998;2023-04-24T04:17:45;8.06;99.42
69938;DHT22;57248;47.320;15.998;2023-04-24T04:20:11;8.20;99.17
69938;DHT22;57248;47.320;15.998;2023-04-24T04:22:43;8.10;99.99
69938;DHT22;57248;47.320;15.998;2023-04-24T04:25:23;8.19;99.99
69938;DHT22;57248;47.320;15.998;2023-04-24T04:27:55;8.38;99.99
69938;DHT22;57248;47.320;15.998;2023-04-24T04:30:27;8.44;99.98
69938;DHT22;57248;47.320;15.998;2023-04-24T04:33:02;8.55;99.99
69938;DHT22;57248;47.320;15.998;2023-04-24T04:35:35;8.65;99.72
69938;DHT22;57248;47.320;15.998;2023-04-24T04:38:08;8.74;99.63
69938;DHT22;57248;47.320;15.998;2023-04-24T04:40:47;8.93;98.77
69938;DHT22;57248;47.320;15.998;2023-04-24T04:43:21;9.22;97.55
69938;DHT22;57248;47.320;15.998;2023-04-24T04:45:54;9.30;97.03
69938;DHT22;57248;47.320;15.998;2023-04-24T04:48:46;9.39;96.67
69938;DHT22;57248;47.320;15.998;2023-04-24T04:51:19;9.32;97.91
69938;DHT22;57248;47.320;15.998;2023-04-24T04:53:51;9.44;97.14
69938;DHT22;57248;47.320;15.998;2023-04-24T04:56:23;9.65;96.91
69938;DHT22;57248;47.320;15.998;2023-04-24T04:58:58;9.78;96.32
69938;DHT22;57248;47.320;15.998;2023-04-24T05:01:31;10.01;95.78
69938;DHT22;57248;47.320;15.998;2023-04-24T05:04:03;9.98;95.67
69938;DHT22;57248;47.320;15.998;2023-04-24T05:06:37;10.16;95.08
69938;DHT22;57248;47.320;15.998;2023-04-24T05:09:09;10.26;93.94
69938;DHT22;57248;47.320;15.998;2023-04-24T05:11:49;10.35;93.84
69938;DHT22;57248;47.320;15.998;2023-04-24T05:14:31;10.50;93.40
69938;DHT22;57248;47.320;15.998;2023-04-24T05:17:03;10.70;92.81
69938;DHT22;57248;47.320;15.998;2023-04-24T05:19:36;10.57;94.08
69938;DHT22;57248;47.320;15.998;2023-04-24T05:22:11;10.87;92.43
69938;DHT22;57248;47.320;15.998;2023-04-24T05:24:48;10.94;92.25
69938;DHT22;57248;47.320;15.998;2023-04-24T05:27:31;11.08;91.10
69938;DHT22;57248;47.320;15.998;2023-04-24T05:30:11;11.43;89.94
69938;DHT22;57248;47.320;15.998;2023-04-24T05:32:44;11.59;90.18
69938;DHT22;57248;47.320;15.998;2023-04-24T05:35:16;11.55;90.68
69938;DHT22;57248;47.320;15.998;2023-04-24T05:37:48;11.90;89.33
69938;DHT22;57248;47.320;15.998;2023-04-24T05:40:20;12.10;89.18
69938;DHT22;57248;47.320;15.998;2023-04-24T05:42:52;12.12;89.14
69938;DHT22;57248;47.320;15.998;2023-04-24T05:45:25;12.44;87.72
69938;DHT22;57248;47.320;15.998;2023-04-24T05:47:57;12.52;87.55
69938;DHT22;57248;47.320;15.998;2023-04-24T05:50:29;12.54;87.73
69938;DHT22;57248;47.320;15.998;2023-04-24T05:53:01;12.77;86.36
69938;DHT22;57248;47.320;15.998;2023-04-24T05:55:37;13.02;84.80
69938;DHT22;57248;47.320;15.998;2023-04-24T05:58:03;13.00;84.65
69938;DHT22;57248;47.320;15.998;2023-04-24T06:00:36;12.96;84.92
69938;DHT22;57248;47.320;15.998;2023-04-24T06:03:09;13.03;84.39
69938;DHT22;57248;47.320;15.998;2023-04-24T06:05:42;13.33;83.68
69938;DHT22;57248;47.320;15.998;2023-04-24T06:08:14;13.29;83.96
69938;DHT22;57248;47.320;15.998;2023-04-24T06:10:48;13.40;84.20
69938;DHT22;57248;47.320;15.998;2023-04-24T06:13:27;13.54;84.05
69938;DHT22;57248;47.320;15.998;2023-04-24T06:16:20;13.68;83.71
69938;DHT22;57248;47.320;15.998;2023-04-24T06:18:59;13.78;83.51
69938;DHT22;57248;47.320;15.998;2023-04-24T06:21:31;14.00;82.90
69938;DHT22;57248;47.320;15.998;2023-04-24T06:24:03;13.80;82.58
69938;DHT22;57248;47.320;15.998;2023-04-24T06:26:30;13.95;82.04
69938;DHT22;57248;47.320;15.998;2023-04-24T06:29:06;13.81;82.41
69938;DHT22;57248;47.320;15.998;2023-04-24T06:31:32;14.01;82.24
69938;DHT22;57248;47.320;15.998;2023-04-24T06:34:09;13.92;82.42
69938;DHT22;57248;47.320;15.998;2023-04-24T06:36:42;13.77;82.40
69938;DHT22;57248;47.320;15.998;2023-04-24T06:39:13;13.64;83.78
69938;DHT22;57248;47.320;15.998;2023-04-24T06:41:46;13.24;85.32
69938;DHT22;57248;47.320;15.998;2023-04-24T06:44:19;13.09;86.64
69938;DHT22;57248;47.320;15.998;2023-04-24T06:46:52;12.93;86.32
69938;DHT22;57248;47.320;15.998;2023-04-24T06:49:24;13.02;86.59
69938;DHT22;57248;47.320;15.998;2023-04-24T06:51:56;12.89;87.98
69938;DHT22;57248;47.320;15.998;2023-04-24T06:54:28;13.26;85.55
69938;DHT22;57248;47.320;15.998;2023-04-24T06:57:02;13.23;85.12
69938;DHT22;57248;47.320;15.998;2023-04-24T06:59:33;13.13;85.95
69938;DHT22;57248;47.320;15.998;2023-04-24T07:02:06;12.88;86.75
69938;DHT22;57248;47.320;15.998;2023-04-24T07:04:38;12.62;87.72
69938;DHT22;57248;47.320;15.998;2023-04-24T07:07:12;12.72;87.45
69938;DHT22;57248;47.320;15.998;2023-04-24T07:09:46;12.65;88.91
69938;DHT22;57248;47.320;15.998;2023-04-24T07:12:18;12.72;88.68
69938;DHT22;57248;47.320;15.998;2023-04-24T07:14:52;12.69;89.58
69938;DHT22;57248;47.320;15.998;2023-04-24T07:17:24;12.47;89.56
69938;DHT22;57248;47.320;15.998;2023-04-24T07:19:56;12.41;91.37
69938;DHT22;57248;47.320;15.998;2023-04-24T07:22:28;12.50;90.91
69938;DHT22;57248;47.320;15.998;2023-04-24T07:25:00;12.47;91.84
69938;DHT22;57248;47.320;15.998;2023-04-24T07:27:25;12.42;92.28
69938;DHT22;57248;47.320;15.998;2023-04-24T07:29:57;12.68;90.83
69938;DHT22;57248;47.320;15.998;2023-04-24T07:32:29;13.06;89.20
69938;DHT22;57248;47.320;15.998;2023-04-24T07:35:01;12.99;87.93
69938;DHT22;57248;47.320;15.998;2023-04-24T07:37:33;13.29;87.37
69938;DHT22;57248;47.320;15.998;2023-04-24T07:40:05;13.36;87.62
69938;DHT22;57248;47.320;15.998;2023-04-24T07:42:38;13.70;87.52
69938;DHT22;57248;47.320;15.998;2023-04-24T07:45:10;13.77;85.57
69938;DHT22;57248;47.320;15.998;2023-04-24T07:47:43;14.39;83.83
69938;DHT22;57248;47.320;15.998;2023-04-24T07:50:18;14.94;81.19
69938;DHT22;57248;47.320;15.998;2023-04-24T07:52:50;15.61;80.00
69938;DHT22;57248;47.320;15.998;2023-04-24T07:55:23;15.66;80.75
69938;DHT22;57248;47.320;15.998;2023-04-24T07:57:56;15.68;79.33
69938;DHT22;57248;47.320;15.998;2023-04-24T08:00:28;15.99;77.52
69938;DHT22;57248;47.320;15.998;2023-04-24T08:03:00;16.30;77.22
69938;DHT22;57248;47.320;15.998;2023-04-24T08:05:33;16.21;75.35
69938;DHT22;57248;47.320;15.998;2023-04-24T08:08:05;16.47;75.34
69938;DHT22;57248;47.320;15.998;2023-04-24T08:10:38;16.38;75.26
69938;DHT22;57248;47.320;15.998;2023-04-24T08:13:10;16.58;76.12
69938;DHT22;57248;47.320;15.998;2023-04-24T08:15:56;16.31;77.07
69938;DHT22;57248;47.320;15.998;2023-04-24T08:18:29;16.41;76.23
69938;DHT22;57248;47.320;15.998;2023-04-24T08:21:01;16.10;76.35
69938;DHT22;57248;47.320;15.998;2023-04-24T08:23:27;16.40;78.19
69938;DHT22;57248;47.320;15.998;2023-04-24T08:25:59;15.97;78.05
69938;DHT22;57248;47.320;15.998;2023-04-24T08:28:31;15.65;78.50
69938;DHT22;57248;47.320;15.998;2023-04-24T08:31:03;15.61;76.99
69938;DHT22;57248;47.320;15.998;2023-04-24T08:33:35;15.38;79.42
69938;DHT22;57248;47.320;15.998;2023-04-24T08:36:07;15.27;79.95
69938;DHT22;57248;47.320;15.998;2023-04-24T08:38:40;15.26;79.98
69938;DHT22;57248;47.320;15.998;2023-04-24T08:41:14;15.20;79.72
69938;DHT22;57248;47.320;15.998;2023-04-24T08:43:46;14.72;81.68
69938;DHT22;57248;47.320;15.998;2023-04-24T08:46:19;14.63;81.50
69938;DHT22;57248;47.320;15.998;2023-04-24T08:48:52;14.49;82.69
69938;DHT22;57248;47.320;15.998;2023-04-24T08:51:26;14.40;82.46
69938;DHT22;57248;47.320;15.998;2023-04-24T08:53:58;14.55;82.56
69938;DHT22;57248;47.320;15.998;2023-04-24T08:56:23;14.62;83.34
69938;DHT22;57248;47.320;15.998;2023-04-24T08:58:56;14.73;82.31
69938;DHT22;57248;47.320;15.998;2023-04-24T09:01:31;14.53;84.13
69938;DHT22;57248;47.320;15.998;2023-04-24T09:04:04;14.72;83.46
69938;DHT22;57248;47.320;15.998;2023-04-24T09:06:36;14.70;84.03
69938;DHT22;57248;47.320;15.998;2023-04-24T09:09:09;14.67;82.87
69938;DHT22;57248;47.320;15.998;2023-04-24T09:11:44;14.88;80.76
69938;DHT22;57248;47.320;15.998;2023-04-24T09:14:17;14.91;80.77
69938;DHT22;57248;47.320;15.998;2023-04-24T09:16:56;14.88;81.62
69938;DHT22;57248;47.320;15.998;2023-04-24T09:19:29;14.50;84.55
69938;DHT22;57248;47.320;15.998;2023-04-24T09:22:05;14.59;82.98
69938;DHT22;57248;47.320;15.998;2023-04-24T09:24:39;14.33;84.34
69938;DHT22;57248;47.320;15.998;2023-04-24T09:27:11;14.53;83.57
69938;DHT22;57248;47.320;15.998;2023-04-24T09:30:04;14.22;85.67
69938;DHT22;57248;47.320;15.998;2023-04-24T09:32:37;14.24;85.90
69938;DHT22;57248;47.320;15.998;2023-04-24T09:35:12;14.29;86.03
69938;DHT22;57248;47.320;15.998;2023-04-24T09:37:46;13.97;84.95
69938;DHT22;57248;47.320;15.998;2023-04-24T09:40:21;13.75;86.29
69938;DHT22;57248;47.320;15.998;2023-04-24T09:42:56;13.95;85.59
69938;DHT22;57248;47.320;15.998;2023-04-24T09:45:37;13.64;82.25
69938;DHT22;57248;47.320;15.998;2023-04-24T09:48:09;13.61;81.72
69938;DHT22;57248;47.320;15.998;2023-04-24T09:50:35;13.39;82.32
69938;DHT22;57248;47.320;15.998;2023-04-24T09:53:07;13.50;81.83
69938;DHT22;57248;47.320;15.998;2023-04-24T09:55:45;13.19;83.21
69938;DHT22;57248;47.320;15.998;2023-04-24T09:58:18;13.15;81.88
69938;DHT22;57248;47.320;15.998;2023-04-24T10:00:53;13.10;82.88
69938;DHT22;57248;47.320;15.998;2023-04-24T10:03:25;13.24;82.52
69938;DHT22;57248;47.320;15.998;2023-04-24T10:06:00;13.27;83.34
69938;DHT22;57248;47.320;15.998;2023-04-24T10:08:35;13.38;82.08
69938;DHT22;57248;47.320;15.998;2023-04-24T10:11:08;13.46;82.88
69938;DHT22;57248;47.320;15.998;2023-04-24T10:13:47;13.50;82.70
69938;DHT22;57248;47.320;15.998;2023-04-24T10:16:21;13.57;82.81
69938;DHT22;57248;47.320;15.998;2023-04-24T10:18:54;13.26;83.20
69938;DHT22;57248;47.320;15.998;2023-04-24T10:21:27;12.72;84.51
69938;DHT22;57248;47.320;15.998;2023-04-24T10:23:59;12.71;85.70
69938;DHT22;57248;47.320;15.998;2023-04-24T10:26:32;12.79;85.45
69938;DHT22;57248;47.320;15.998;2023-04-24T10:29:05;12.74;86.65
69938;DHT22;57248;47.320;15.998;2023-04-24T10:31:44;13.09;85.54
69938;DHT22;57248;47.320;15.998;2023-04-24T10:34:20;12.78;86.06
69938;DHT22;57248;47.320;15.998;2023-04-24T10:36:52;12.91;86.31
69938;DHT22;57248;47.320;15.998;2023-04-24T10:39:26;12.89;86.68
69938;DHT22;57248;47.320;15.998;2023-04-24T10:41:58;12.87;86.40
69938;DHT22;57248;47.320;15.998;2023-04-24T10:44:36;12.67;86.10
69938;DHT22;57248;47.320;15.998;2023-04-24T10:47:13;12.72;86.23
69938;DHT22;57248;47.320;15.998;2023-04-24T10:49:46;12.71;85.54
69938;DHT22;57248;47.320;15.998;2023-04-24T10:52:18;12.89;85.00
69938;DHT22;57248;47.320;15.998;2023-04-24T10:54:51;12.71;86.49
69938;DHT22;57248;47.320;15.998;2023-04-24T10:57:27;12.50;86.44
69938;DHT22;57248;47.320;15.998;2023-04-24T11:02:46;12.78;85.94
69938;DHT22;57248;47.320;15.998;2023-04-24T11:05:21;12.84;86.02
69938;DHT22;57248;47.320;15.998;2023-04-24T11:08:15;12.65;86.06
69938;DHT22;57248;47.320;15.998;2023-04-24T11:11:12;12.67;86.65
69938;DHT22;57248;47.320;15.998;2023-04-24T11:16:44;13.19;85.36
69938;DHT22;57248;47.320;15.998;2023-04-24T11:19:22;13.36;84.95
69938;DHT22;57248;47.320;15.998;2023-04-24T11:22:06;13.57;84.74
69938;DHT22;57248;47.320;15.998;2023-04-24T11:24:51;13.60;85.08
69938;DHT22;57248;47.320;15.998;2023-04-24T11:27:31;13.87;84.30
69938;DHT22;57248;47.320;15.998;2023-04-24T11:30:05;14.02;83.06
69938;DHT22;57248;47.320;15.998;2023-04-24T11:32:40;14.14;83.54
69938;DHT22;57248;47.320;15.998;2023-04-24T11:35:22;14.72;82.00
69938;DHT22;57248;47.320;15.998;2023-04-24T11:37:59;14.52;82.68
69938;DHT22;57248;47.320;15.998;2023-04-24T11:40:34;14.97;81.66
69938;DHT22;57248;47.320;15.998;2023-04-24T11:43:06;15.34;80.77
69938;DHT22;57248;47.320;15.998;2023-04-24T11:45:38;15.48;79.65
69938;DHT22;57248;47.320;15.998;2023-04-24T11:48:11;15.51;79.65
69938;DHT22;57248;47.320;15.998;2023-04-24T11:50:46;15.42;79.73
69938;DHT22;57248;47.320;15.998;2023-04-24T11:53:20;15.45;79.70
69938;DHT22;57248;47.320;15.998;2023-04-24T11:55:53;15.17;81.08
69938;DHT22;57248;47.320;15.998;2023-04-24T11:58:26;15.35;81.11
69938;DHT22;57248;47.320;15.998;2023-04-24T12:00:59;15.54;80.02
69938;DHT22;57248;47.320;15.998;2023-04-24T12:03:33;15.79;79.89
69938;DHT22;57248;47.320;15.998;2023-04-24T12:06:09;15.85;80.42
69938;DHT22;57248;47.320;15.998;2023-04-24T12:08:41;15.69;80.13
69938;DHT22;57248;47.320;15.998;2023-04-24T12:11:15;15.92;79.53
69938;DHT22;57248;47.320;15.998;2023-04-24T12:13:55;16.12;78.74
69938;DHT22;57248;47.320;15.998;2023-04-24T12:16:32;16.27;78.80
69938;DHT22;57248;47.320;15.998;2023-04-24T12:19:12;16.64;77.63
69938;DHT22;57248;47.320;15.998;2023-04-24T12:21:59;16.60;76.33
69938;DHT22;57248;47.320;15.998;2023-04-24T12:24:32;16.34;78.14
69938;DHT22;57248;47.320;15.998;2023-04-24T12:27:04;16.07;77.83
69938;DHT22;57248;47.320;15.998;2023-04-24T12:30:00;16.58;76.92
69938;DHT22;57248;47.320;15.998;2023-04-24T12:32:33;16.58;76.53
69938;DHT22;57248;47.320;15.998;2023-04-24T12:35:05;16.23;78.17
69938;DHT22;57248;47.320;15.998;2023-04-24T12:38:09;15.87;77.88
69938;DHT22;57248;47.320;15.998;2023-04-24T12:40:42;16.24;78.34
69938;DHT22;57248;47.320;15.998;2023-04-24T12:43:34;16.03;78.62
69938;DHT22;57248;47.320;15.998;2023-04-24T12:46:07;16.53;76.15
69938;DHT22;57248;47.320;15.998;2023-04-24T12:48:39;16.57;77.00
69938;DHT22;57248;47.320;15.998;2023-04-24T12:51:11;16.37;77.60
69938;DHT22;57248;47.320;15.998;2023-04-24T12:53:43;16.41;77.01
69938;DHT22;57248;47.320;15.998;2023-04-24T12:56:15;16.53;76.84
69938;DHT22;57248;47.320;15.998;2023-04-24T12:58:40;16.69;75.23
69938;DHT22;57248;47.320;15.998;2023-04-24T13:01:13;16.46;75.80
69938;DHT22;57248;47.320;15.998;2023-04-24T13:03:45;16.79;72.77
69938;DHT22;57248;47.320;15.998;2023-04-24T13:06:10;16.55;76.04
69938;DHT22;57248;47.320;15.998;2023-04-24T13:08:42;15.96;75.09
69938;DHT22;57248;47.320;15.998;2023-04-24T13:11:14;16.43;72.85
69938;DHT22;57248;47.320;15.998;2023-04-24T13:13:53;16.47;73.19
69938;DHT22;57248;47.320;15.998;2023-04-24T13:16:25;16.40;74.00
69938;DHT22;57248;47.320;15.998;2023-04-24T13:18:57;16.58;74.51
69938;DHT22;57248;47.320;15.998;2023-04-24T13:21:29;16.60;72.58
69938;DHT22;57248;47.320;15.998;2023-04-24T13:23:55;16.61;72.36
69938;DHT22;57248;47.320;15.998;2023-04-24T13:26:28;15.86;73.86
69938;DHT22;57248;47.320;15.998;2023-04-24T13:29:00;15.95;75.46
69938;DHT22;57248;47.320;15.998;2023-04-24T13:31:32;16.18;73.86
69938;DHT22;57248;47.320;15.998;2023-04-24T13:34:04;16.03;75.05
69938;DHT22;57248;47.320;15.998;2023-04-24T13:36:36;16.06;75.84
69938;DHT22;57248;47.320;15.998;2023-04-24T13:39:08;15.69;75.93
69938;DHT22;57248;47.320;15.998;2023-04-24T13:41:40;15.48;76.18
69938;DHT22;57248;47.320;15.998;2023-04-24T13:44:14;15.73;77.35
69938;DHT22;57248;47.320;15.998;2023-04-24T13:46:47;15.73;76.02
69938;DHT22;57248;47.320;15.998;2023-04-24T13:49:13;16.06;74.98
69938;DHT22;57248;47.320;15.998;2023-04-24T13:51:46;16.20;75.59
69938;DHT22;57248;47.320;15.998;2023-04-24T13:54:20;15.55;76.58
69938;DHT22;57248;47.320;15.998;2023-04-24T13:56:57;15.61;78.07
69938;DHT22;57248;47.320;15.998;2023-04-24T13:59:29;16.07;75.63
69938;DHT22;57248;47.320;15.998;2023-04-24T14:02:01;16.58;74.00
69938;DHT22;57248;47.320;15.998;2023-04-24T14:04:26;16.84;73.04
69938;DHT22;57248;47.320;15.998;2023-04-24T14:07:00;16.91;73.02
69938;DHT22;57248;47.320;15.998;2023-04-24T14:09:34;17.32;71.11
69938;DHT22;57248;47.320;15.998;2023-04-24T14:12:06;17.23;73.99
69938;DHT22;57248;47.320;15.998;2023-04-24T14:14:38;17.18;71.39
69938;DHT22;57248;47.320;15.998;2023-04-24T14:17:18;17.01;73.51
69938;DHT22;57248;47.320;15.998;2023-04-24T14:19:43;17.08;72.47
69938;DHT22;57248;47.320;15.998;2023-04-24T14:22:16;17.43;72.21
69938;DHT22;57248;47.320;15.998;2023-04-24T14:24:49;17.27;72.67
69938;DHT22;57248;47.320;15.998;2023-04-24T14:27:21;17.78;71.84
69938;DHT22;57248;47.320;15.998;2023-04-24T14:29:53;17.26;72.27
69938;DHT22;57248;47.320;15.998;2023-04-24T14:32:25;17.22;74.37
69938;DHT22;57248;47.320;15.998;2023-04-24T14:34:58;16.68;75.19
69938;DHT22;57248;47.320;15.998;2023-04-24T14:37:30;16.54;74.89
69938;DHT22;57248;47.320;15.998;2023-04-24T14:39:55;16.41;74.68
69938;DHT22;57248;47.320;15.998;2023-04-24T14:42:28;16.65;74.40
69938;DHT22;57248;47.320;15.998;2023-04-24T14:45:01;16.91;73.63
69938;DHT22;57248;47.320;15.998;2023-04-24T14:47:33;17.30;72.42
69938;DHT22;57248;47.320;15.998;2023-04-24T14:50:05;17.32;72.67
69938;DHT22;57248;47.320;15.998;2023-04-24T14:52:39;17.45;74.94
69938;DHT22;57248;47.320;15.998;2023-04-24T14:55:11;17.35;74.35
69938;DHT22;57248;47.320;15.998;2023-04-24T14:57:44;16.91;72.85
69938;DHT22;57248;47.320;15.998;2023-04-24T15:00:16;17.32;72.68
69938;DHT22;57248;47.320;15.998;2023-04-24T15:02:49;17.11;72.76
69938;DHT22;57248;47.320;15.998;2023-04-24T15:05:21;17.47;72.90
69938;DHT22;57248;47.320;15.998;2023-04-24T15:07:54;16.72;73.19
69938;DHT22;57248;47.320;15.998;2023-04-24T15:10:26;16.38;75.30
69938;DHT22;57248;47.320;15.998;2023-04-24T15:13:05;16.47;76.12
69938;DHT22;57248;47.320;15.998;2023-04-24T15:15:37;16.81;74.90
69938;DHT22;57248;47.320;15.998;2023-04-24T15:18:16;16.43;76.24
69938;DHT22;57248;47.320;15.998;2023-04-24T15:20:48;16.26;75.43
69938;DHT22;57248;47.320;15.998;2023-04-24T15:23:21;16.06;76.39
69938;DHT22;57248;47.320;15.998;2023-04-24T15:25:47;15.55;78.78
69938;DHT22;57248;47.320;15.998;2023-04-24T15:28:19;15.45;78.94
69938;DHT22;57248;47.320;15.998;2023-04-24T15:30:51;15.10;81.07
69938;DHT22;57248;47.320;15.998;2023-04-24T15:33:23;15.04;79.94
69938;DHT22;57248;47.320;15.998;2023-04-24T15:35:55;14.76;81.41
69938;DHT22;57248;47.320;15.998;2023-04-24T15:38:27;14.93;80.49
69938;DHT22;57248;47.320;15.998;2023-04-24T15:40:59;14.94;80.45
69938;DHT22;57248;47.320;15.998;2023-04-24T15:43:31;15.16;81.02
69938;DHT22;57248;47.320;15.998;2023-04-24T15:46:06;14.90;79.98
69938;DHT22;57248;47.320;15.998;2023-04-24T15:48:41;14.97;80.05
69938;DHT22;57248;47.320;15.998;2023-04-24T15:51:15;14.93;80.16
69938;DHT22;57248;47.320;15.998;2023-04-24T15:53:47;14.02;83.16
69938;DHT22;57248;47.320;15.998;2023-04-24T15:56:19;14.35;83.28
69938;DHT22;57248;47.320;15.998;2023-04-24T15:58:52;13.91;85.73
69938;DHT22;57248;47.320;15.998;2023-04-24T16:01:24;14.24;85.04
69938;DHT22;57248;47.320;15.998;2023-04-24T16:03:56;13.66;84.04
69938;DHT22;57248;47.320;15.998;2023-04-24T16:06:29;13.53;84.03